createdAt,value
2023-04-09T00:00:10.710Z,3.60
2023-04-09T00:03:13.351Z,3.59
2023-04-09T00:06:16.079Z,3.56
2023-04-09T00:09:18.570Z,3.60
2023-04-09T00:12:21.245Z,3.60
2023-04-09T00:15:30.527Z,3.60
2023-04-09T00:18:33.824Z,3.64
2023-04-09T00:21:36.573Z,3.61
2023-04-09T00:24:39.171Z,3.57
2023-04-09T00:27:41.559Z,3.60
2023-04-09T00:30:44.184Z,3.67
2023-04-09T00:33:46.611Z,3.67
2023-04-09T00:36:48.951Z,3.69
2023-04-09T00:39:51.558Z,3.71
2023-04-09T00:42:53.839Z,3.72
2023-04-09T00:45:56.643Z,3.75
2023-04-09T00:48:59.466Z,3.77
2023-04-09T00:52:02.086Z,3.77
2023-04-09T00:55:06.729Z,3.78
2023-04-09T00:58:09.214Z,3.81
2023-04-09T01:01:11.732Z,3.80
2023-04-09T01:04:14.560Z,3.79
2023-04-09T01:07:38.646Z,3.77
2023-04-09T01:10:53.041Z,3.81
2023-04-09T01:13:55.948Z,3.75
2023-04-09T01:17:05.153Z,3.64
2023-04-09T01:20:12.807Z,3.65
2023-04-09T01:23:34.353Z,3.60
2023-04-09T01:26:55.433Z,3.60
2023-04-09T01:29:58.519Z,3.52
2023-04-09T01:33:01.644Z,3.48
2023-04-09T01:36:05.050Z,3.44
2023-04-09T01:39:10.728Z,3.38
2023-04-09T01:42:13.556Z,3.37
2023-04-09T01:45:17.672Z,3.36
2023-04-09T01:48:21.176Z,3.37
2023-04-09T01:51:24.381Z,3.37
2023-04-09T01:54:26.861Z,3.36
2023-04-09T01:57:30.148Z,3.37
2023-04-09T02:00:37.499Z,3.43
2023-04-09T02:03:43.060Z,3.38
2023-04-09T02:06:45.725Z,3.45
2023-04-09T02:09:49.688Z,3.46
2023-04-09T02:12:53.293Z,3.40
2023-04-09T02:15:57.073Z,3.31
2023-04-09T02:19:01.796Z,3.27
2023-04-09T02:22:04.877Z,3.27
2023-04-09T02:25:08.402Z,3.21
2023-04-09T02:28:10.979Z,3.23
2023-04-09T02:31:13.953Z,3.28
2023-04-09T02:34:18.343Z,3.35
2023-04-09T02:37:22.136Z,3.34
2023-04-09T02:40:25.644Z,3.35
2023-04-09T02:43:28.601Z,3.42
2023-04-09T02:46:32.183Z,3.50
2023-04-09T02:49:35.352Z,3.56
2023-04-09T02:52:37.963Z,3.65
2023-04-09T02:55:40.901Z,3.65
2023-04-09T02:58:44.150Z,3.65
2023-04-09T03:01:47.943Z,3.68
2023-04-09T03:04:52.719Z,3.68
2023-04-09T03:07:56.530Z,3.62
2023-04-09T03:10:59.336Z,3.58
2023-04-09T03:14:02.194Z,3.52
2023-04-09T03:17:05.021Z,3.44
2023-04-09T03:20:09.650Z,3.46
2023-04-09T03:23:12.768Z,3.45
2023-04-09T03:26:16.544Z,3.38
2023-04-09T03:29:19.945Z,3.42
2023-04-09T03:32:22.666Z,3.37
2023-04-09T03:35:26.051Z,3.31
2023-04-09T03:38:28.877Z,3.28
2023-04-09T03:41:33.145Z,3.27
2023-04-09T03:44:36.398Z,3.29
2023-04-09T03:47:39.720Z,3.34
2023-04-09T03:50:43.097Z,3.37
2023-04-09T03:53:45.906Z,3.39
2023-04-09T03:56:49.589Z,3.39
2023-04-09T03:59:52.700Z,3.45
2023-04-09T04:02:56.636Z,3.58
2023-04-09T04:06:04.091Z,3.73
2023-04-09T04:09:07.498Z,3.81
2023-04-09T04:12:10.622Z,3.81
2023-04-09T04:15:14.029Z,3.79
2023-04-09T04:18:17.216Z,3.83
2023-04-09T04:21:20.515Z,3.93
2023-04-09T04:24:23.568Z,3.97
2023-04-09T04:27:26.908Z,3.98
2023-04-09T04:30:29.968Z,3.95
2023-04-09T04:33:33.809Z,4.00
2023-04-09T04:36:37.825Z,4.04
2023-04-09T04:39:41.291Z,4.09
2023-04-09T04:42:46.817Z,4.09
2023-04-09T04:45:51.355Z,4.04
2023-04-09T04:48:56.240Z,4.14
2023-04-09T04:51:59.945Z,4.23
2023-04-09T04:55:03.167Z,4.23
2023-04-09T04:58:06.944Z,4.18
2023-04-09T05:01:10.988Z,4.29
2023-04-09T05:04:14.684Z,4.30
2023-04-09T05:07:18.586Z,4.30
2023-04-09T05:10:21.502Z,4.34
2023-04-09T05:13:25.153Z,4.34
2023-04-09T05:16:28.193Z,4.37
2023-04-09T05:19:33.637Z,4.36
2023-04-09T05:22:37.135Z,4.36
2023-04-09T05:25:40.834Z,4.43
2023-04-09T05:28:44.128Z,4.51
2023-04-09T05:31:47.324Z,4.53
2023-04-09T05:34:50.559Z,4.67
2023-04-09T05:37:53.945Z,4.72
2023-04-09T05:40:57.016Z,4.64
2023-04-09T05:44:01.007Z,4.77
2023-04-09T05:47:04.229Z,4.85
2023-04-09T05:50:08.159Z,4.95
2023-04-09T05:53:11.513Z,4.99
2023-04-09T05:56:16.356Z,5.02
2023-04-09T05:59:20.227Z,5.05
2023-04-09T06:02:24.468Z,5.22
2023-04-09T06:05:29.422Z,5.27
2023-04-09T06:08:32.949Z,5.33
2023-04-09T06:11:36.322Z,5.40
2023-04-09T06:14:40.856Z,5.46
2023-04-09T06:17:44.199Z,5.44
2023-04-09T06:20:47.069Z,5.57
2023-04-09T06:23:50.722Z,5.48
2023-04-09T06:26:54.289Z,5.47
2023-04-09T06:29:57.456Z,5.52
2023-04-09T06:33:00.787Z,5.53
2023-04-09T06:36:05.021Z,5.64
2023-04-09T06:39:08.479Z,5.82
2023-04-09T06:42:11.965Z,5.86
2023-04-09T06:45:15.680Z,5.96
2023-04-09T06:48:19.838Z,6.07
2023-04-09T06:51:23.409Z,6.17
2023-04-09T06:54:27.280Z,6.36
2023-04-09T06:57:30.526Z,6.34
2023-04-09T07:00:34.048Z,6.55
2023-04-09T07:03:38.126Z,6.72
2023-04-09T07:06:41.860Z,6.64
2023-04-09T07:09:45.560Z,6.43
2023-04-09T07:12:49.358Z,6.39
2023-04-09T07:15:52.371Z,6.62
2023-04-09T07:18:55.966Z,6.65
2023-04-09T07:21:59.571Z,6.77
2023-04-09T07:25:02.986Z,6.70
2023-04-09T07:28:06.459Z,6.98
2023-04-09T07:31:10.826Z,7.11
2023-04-09T07:34:14.732Z,6.94
2023-04-09T07:37:18.045Z,6.87
2023-04-09T07:40:21.406Z,7.28
2023-04-09T07:43:24.703Z,7.46
2023-04-09T07:46:28.473Z,7.75
2023-04-09T07:49:31.863Z,7.60
2023-04-09T07:52:35.217Z,7.53
2023-04-09T07:55:39.027Z,7.64
2023-04-09T07:58:43.564Z,7.67
2023-04-09T08:01:47.134Z,7.96
2023-04-09T08:04:51.950Z,8.53
2023-04-09T08:07:55.074Z,8.92
2023-04-09T08:10:58.268Z,8.86
2023-04-09T08:14:03.830Z,9.43
2023-04-09T08:17:07.637Z,9.51
2023-04-09T08:20:12.158Z,9.41
2023-04-09T08:23:15.663Z,9.58
2023-04-09T08:26:18.784Z,9.96
2023-04-09T08:29:23.079Z,9.54
2023-04-09T08:32:26.846Z,9.11
2023-04-09T08:35:34.198Z,9.23
2023-04-09T08:38:38.918Z,8.97
2023-04-09T08:41:46.714Z,9.72
2023-04-09T08:44:54.215Z,10.17
2023-04-09T08:48:00.336Z,10.24
2023-04-09T08:51:04.609Z,10.82
2023-04-09T08:54:08.831Z,11.22
2023-04-09T08:57:13.240Z,9.88
2023-04-09T09:00:17.263Z,10.64
2023-04-09T09:03:21.865Z,10.74
2023-04-09T09:06:28.359Z,10.89
2023-04-09T09:09:32.576Z,10.81
2023-04-09T09:12:37.117Z,10.45
2023-04-09T09:15:40.408Z,9.86
2023-04-09T09:18:45.011Z,10.10
2023-04-09T09:21:57.041Z,9.91
2023-04-09T09:25:00.236Z,9.68
2023-04-09T09:28:11.312Z,10.29
2023-04-09T09:31:16.060Z,10.47
2023-04-09T09:34:20.754Z,10.17
2023-04-09T09:37:29.501Z,10.03
2023-04-09T09:40:33.193Z,10.07
2023-04-09T09:43:44.461Z,10.21
2023-04-09T09:46:47.542Z,10.37
2023-04-09T09:49:51.417Z,9.93
2023-04-09T09:53:06.887Z,10.01
2023-04-09T09:56:15.284Z,9.88
2023-04-09T09:59:22.800Z,9.46
2023-04-09T10:02:31.996Z,9.69
2023-04-09T10:05:38.303Z,8.96
2023-04-09T10:08:43.244Z,9.55
2023-04-09T10:11:49.761Z,9.77
2023-04-09T10:14:58.315Z,9.89
2023-04-09T10:18:03.646Z,9.70
2023-04-09T10:21:25.000Z,9.33
2023-04-09T10:24:28.614Z,9.44
2023-04-09T10:27:33.144Z,9.53
2023-04-09T10:30:38.188Z,9.61
2023-04-09T10:33:46.776Z,9.41
2023-04-09T10:36:54.637Z,9.32
2023-04-09T10:39:59.845Z,9.63
2023-04-09T10:43:04.496Z,10.09
2023-04-09T10:46:09.596Z,10.30
2023-04-09T10:49:15.891Z,10.22
2023-04-09T10:52:31.265Z,10.90
2023-04-09T10:55:42.351Z,11.06
2023-04-09T10:58:45.538Z,11.14
2023-04-09T11:01:57.498Z,10.61
2023-04-09T11:05:03.726Z,10.49
2023-04-09T11:08:08.632Z,10.66
2023-04-09T11:11:12.769Z,10.75
2023-04-09T11:14:20.363Z,10.99
2023-04-09T11:17:24.300Z,10.91
2023-04-09T11:20:28.495Z,10.89
2023-04-09T11:23:33.022Z,10.48
2023-04-09T11:26:37.757Z,10.46
2023-04-09T11:29:41.668Z,10.65
2023-04-09T11:32:45.686Z,10.63
2023-04-09T11:35:49.466Z,11.01
2023-04-09T11:38:53.013Z,11.13
2023-04-09T11:41:56.589Z,10.90
2023-04-09T11:45:00.316Z,11.05
2023-04-09T11:48:04.186Z,10.87
2023-04-09T11:51:08.022Z,10.67
2023-04-09T11:54:12.981Z,10.93
2023-04-09T11:57:17.499Z,10.70
2023-04-09T12:00:22.037Z,10.96
2023-04-09T12:03:33.804Z,10.75
2023-04-09T12:06:41.512Z,10.82
2023-04-09T12:09:48.908Z,11.20
2023-04-09T12:12:51.948Z,11.22
2023-04-09T12:15:59.106Z,10.14
2023-04-09T12:19:07.410Z,10.75
2023-04-09T12:22:10.828Z,11.26
2023-04-09T12:25:13.738Z,11.50
2023-04-09T12:28:18.896Z,11.38
2023-04-09T12:31:21.871Z,11.36
2023-04-09T12:34:25.250Z,11.05
2023-04-09T12:37:29.439Z,11.05
2023-04-09T12:40:32.357Z,11.26
2023-04-09T12:43:35.647Z,11.64
2023-04-09T12:46:39.267Z,11.43
2023-04-09T12:49:45.827Z,11.30
2023-04-09T12:52:48.541Z,11.31
2023-04-09T12:55:51.378Z,11.20
2023-04-09T12:58:55.009Z,11.68
2023-04-09T13:01:58.078Z,11.83
2023-04-09T13:05:01.513Z,12.20
2023-04-09T13:08:04.486Z,12.19
2023-04-09T13:11:07.487Z,12.31
2023-04-09T13:14:14.036Z,12.43
2023-04-09T13:17:16.844Z,12.57
2023-04-09T13:20:20.145Z,13.10
2023-04-09T13:23:22.713Z,13.02
2023-04-09T13:26:25.499Z,12.97
2023-04-09T13:29:29.921Z,13.14
2023-04-09T13:32:32.523Z,13.31
2023-04-09T13:35:35.112Z,13.65
2023-04-09T13:38:37.512Z,13.45
2023-04-09T13:41:40.665Z,13.72
2023-04-09T13:44:45.569Z,13.57
2023-04-09T13:47:48.329Z,13.47
2023-04-09T13:50:51.077Z,13.30
2023-04-09T13:53:53.541Z,13.31
2023-04-09T13:56:56.636Z,13.21
2023-04-09T14:00:02.400Z,13.48
2023-04-09T14:03:05.132Z,13.58
2023-04-09T14:06:09.382Z,12.83
2023-04-09T14:09:12.511Z,11.66
2023-04-09T14:12:15.157Z,11.62
2023-04-09T14:15:18.255Z,11.71
2023-04-09T14:18:20.752Z,11.84
2023-04-09T14:21:23.571Z,11.61
2023-04-09T14:24:26.406Z,11.60
2023-04-09T14:27:29.390Z,11.50
2023-04-09T14:30:32.014Z,11.45
2023-04-09T14:33:34.562Z,11.45
2023-04-09T14:36:37.866Z,11.00
2023-04-09T14:39:40.854Z,11.02
2023-04-09T14:42:43.461Z,11.16
2023-04-09T14:45:46.126Z,11.43
2023-04-09T14:48:49.287Z,11.24
2023-04-09T14:51:52.348Z,11.30
2023-04-09T14:54:54.972Z,11.57
2023-04-09T14:57:58.020Z,12.05
2023-04-09T15:01:00.595Z,12.26
2023-04-09T15:04:03.117Z,12.40
2023-04-09T15:07:07.394Z,12.34
2023-04-09T15:10:10.172Z,12.50
2023-04-09T15:13:13.145Z,12.76
2023-04-09T15:16:22.405Z,12.72
2023-04-09T15:19:24.852Z,12.14
2023-04-09T15:22:27.285Z,12.10
2023-04-09T15:25:29.952Z,12.43
2023-04-09T15:28:32.398Z,12.20
2023-04-09T15:31:35.231Z,12.42
2023-04-09T15:34:38.308Z,12.02
2023-04-09T15:37:41.153Z,11.83
2023-04-09T15:40:43.736Z,11.90
2023-04-09T15:43:46.337Z,11.74
2023-04-09T15:46:48.929Z,11.59
2023-04-09T15:49:53.526Z,11.32
2023-04-09T15:52:56.620Z,11.18
2023-04-09T15:55:59.316Z,10.97
2023-04-09T15:59:02.500Z,10.92
2023-04-09T16:02:05.355Z,10.92
2023-04-09T16:05:13.299Z,10.79
2023-04-09T16:08:16.437Z,10.64
2023-04-09T16:11:19.091Z,10.38
2023-04-09T16:14:21.804Z,10.42
2023-04-09T16:17:25.271Z,10.43
2023-04-09T16:20:29.650Z,10.39
2023-04-09T16:23:33.551Z,10.38
2023-04-09T16:26:36.283Z,10.40
2023-04-09T16:29:39.068Z,10.40
2023-04-09T16:32:41.998Z,10.35
2023-04-09T16:35:44.715Z,10.33
2023-04-09T16:38:49.441Z,10.29
2023-04-09T16:41:52.891Z,10.26
2023-04-09T16:44:56.013Z,10.23
2023-04-09T16:47:58.962Z,10.20
2023-04-09T16:51:01.758Z,10.16
2023-04-09T16:54:04.691Z,10.01
2023-04-09T16:57:07.265Z,9.84
2023-04-09T17:00:10.825Z,9.80
2023-04-09T17:03:13.720Z,9.74
2023-04-09T17:06:17.363Z,9.69
2023-04-09T17:09:21.342Z,9.75
2023-04-09T17:12:25.036Z,9.54
2023-04-09T17:15:28.381Z,9.52
2023-04-09T17:18:31.063Z,9.51
2023-04-09T17:21:33.887Z,9.37
2023-04-09T17:24:37.503Z,9.40
2023-04-09T17:27:41.109Z,9.37
2023-04-09T17:30:44.492Z,9.28
2023-04-09T17:33:48.886Z,9.30
2023-04-09T17:36:57.790Z,9.27
2023-04-09T17:40:01.427Z,9.26
2023-04-09T17:43:04.564Z,9.17
2023-04-09T17:46:10.490Z,9.15
2023-04-09T17:49:13.579Z,9.19
2023-04-09T17:52:17.228Z,8.97
2023-04-09T17:55:20.477Z,9.07
2023-04-09T17:58:25.037Z,8.99
2023-04-09T18:01:28.427Z,9.06
2023-04-09T18:04:32.211Z,9.02
2023-04-09T18:07:35.312Z,8.94
2023-04-09T18:10:38.575Z,8.71
2023-04-09T18:13:41.474Z,8.68
2023-04-09T18:16:44.794Z,8.59
2023-04-09T18:19:47.792Z,8.49
2023-04-09T18:22:51.493Z,8.49
2023-04-09T18:25:54.893Z,8.45
2023-04-09T18:29:00.594Z,8.37
2023-04-09T18:32:04.101Z,8.21
2023-04-09T18:35:07.778Z,8.13
2023-04-09T18:38:10.489Z,8.13
2023-04-09T18:41:17.275Z,8.09
2023-04-09T18:44:20.434Z,7.88
2023-04-09T18:47:23.104Z,7.67
2023-04-09T18:50:26.236Z,7.53
2023-04-09T18:53:29.300Z,7.51
2023-04-09T18:56:32.396Z,7.40
2023-04-09T18:59:35.337Z,7.40
2023-04-09T19:02:38.347Z,7.32
2023-04-09T19:05:41.973Z,7.31
2023-04-09T19:08:44.966Z,7.19
2023-04-09T19:11:48.018Z,7.15
2023-04-09T19:14:51.295Z,7.14
2023-04-09T19:17:55.035Z,7.04
2023-04-09T19:20:58.168Z,6.99
2023-04-09T19:24:02.499Z,6.97
2023-04-09T19:27:10.400Z,6.98
2023-04-09T19:30:15.075Z,6.94
2023-04-09T19:33:18.119Z,6.78
2023-04-09T19:36:23.800Z,6.70
2023-04-09T19:39:27.508Z,6.65
2023-04-09T19:42:30.187Z,6.60
2023-04-09T19:45:32.772Z,6.53
2023-04-09T19:48:36.154Z,6.58
2023-04-09T19:51:38.961Z,6.51
2023-04-09T19:54:41.950Z,6.45
2023-04-09T19:57:46.510Z,6.39
2023-04-09T20:00:49.560Z,6.32
2023-04-09T20:03:53.197Z,6.21
2023-04-09T20:06:55.645Z,6.15
2023-04-09T20:09:58.748Z,6.06
2023-04-09T20:13:02.453Z,5.97
2023-04-09T20:16:05.888Z,5.90
2023-04-09T20:19:08.440Z,5.83
2023-04-09T20:22:11.638Z,5.80
2023-04-09T20:25:14.897Z,5.71
2023-04-09T20:28:17.814Z,5.66
2023-04-09T20:31:20.771Z,5.61
2023-04-09T20:34:27.622Z,5.58
2023-04-09T20:37:31.164Z,5.52
2023-04-09T20:40:36.080Z,5.34
2023-04-09T20:43:39.005Z,5.31
2023-04-09T20:46:42.594Z,5.27
2023-04-09T20:49:47.042Z,5.23
2023-04-09T20:52:50.134Z,5.24
2023-04-09T20:55:54.131Z,5.23
2023-04-09T20:59:00.929Z,5.12
2023-04-09T21:02:04.405Z,5.10
2023-04-09T21:05:23.666Z,5.10
2023-04-09T21:08:27.613Z,5.05
2023-04-09T21:11:29.970Z,4.99
2023-04-09T21:14:32.142Z,4.92
2023-04-09T21:17:35.237Z,4.89
2023-04-09T21:20:38.969Z,4.83
2023-04-09T21:23:42.354Z,4.80
2023-04-09T21:26:51.751Z,4.79
2023-04-09T21:29:55.008Z,4.77
2023-04-09T21:32:58.299Z,4.72
2023-04-09T21:36:02.586Z,4.70
2023-04-09T21:39:06.432Z,4.67
2023-04-09T21:42:09.655Z,4.63
2023-04-09T21:45:12.741Z,4.63
2023-04-09T21:48:15.311Z,4.60
2023-04-09T21:51:18.699Z,4.56
2023-04-09T21:54:23.550Z,4.53
2023-04-09T21:57:26.585Z,4.51
2023-04-09T22:00:30.509Z,4.49
2023-04-09T22:03:33.916Z,4.45
2023-04-09T22:06:37.149Z,4.40
2023-04-09T22:09:39.922Z,4.39
2023-04-09T22:12:42.824Z,4.33
2023-04-09T22:15:45.817Z,4.32
2023-04-09T22:18:49.013Z,4.34
2023-04-09T22:21:51.798Z,4.29
2023-04-09T22:24:54.990Z,4.25
2023-04-09T22:27:58.075Z,4.25
2023-04-09T22:31:01.724Z,4.30
2023-04-09T22:34:19.367Z,4.22
2023-04-09T22:37:23.959Z,4.16
2023-04-09T22:40:27.182Z,4.04
2023-04-09T22:43:30.200Z,3.98
2023-04-09T22:46:35.818Z,3.97
2023-04-09T22:49:39.808Z,3.92
2023-04-09T22:52:43.794Z,3.94
2023-04-09T22:55:52.023Z,3.94
2023-04-09T22:58:55.713Z,3.91
2023-04-09T23:01:59.041Z,3.82
2023-04-09T23:05:02.760Z,3.77
2023-04-09T23:08:06.251Z,3.72
2023-04-09T23:11:09.657Z,3.66
2023-04-09T23:14:12.800Z,3.57
2023-04-09T23:17:15.622Z,3.48
2023-04-09T23:20:19.336Z,3.44
2023-04-09T23:23:22.639Z,3.43
2023-04-09T23:26:26.317Z,3.36
2023-04-09T23:29:29.538Z,3.33
2023-04-09T23:32:33.102Z,3.31
2023-04-09T23:35:37.285Z,3.33
2023-04-09T23:38:42.089Z,3.29
2023-04-09T23:41:45.247Z,3.35
2023-04-09T23:44:48.588Z,3.30
2023-04-09T23:47:52.405Z,3.23
2023-04-09T23:50:55.608Z,3.20
2023-04-09T23:53:58.990Z,3.17
2023-04-09T23:57:02.460Z,3.09
